sensor_id;sensor_type;location;lat;lon;timestamp;P1;durP1;ratioP1;P2;durP2;ratioP2
31270;SDS011;17904;47.420;9.310;2022-07-29T00:02:24;2.42;;;1.77;;
31270;SDS011;17904;47.420;9.310;2022-07-29T00:04:54;4.78;;;1.73;;
31270;SDS011;17904;47.420;9.310;2022-07-29T00:09:48;5.10;;;1.50;;
31270;SDS011;17904;47.420;9.310;2022-07-29T00:12:18;2.80;;;1.83;;
31270;SDS011;17904;47.420;9.310;2022-07-29T00:14:53;1.30;;;1.20;;
31270;SDS011;17904;47.420;9.310;2022-07-29T00:17:21;3.42;;;1.80;;
31270;SDS011;17904;47.420;9.310;2022-07-29T00:19:48;3.50;;;1.92;;
31270;SDS011;17904;47.420;9.310;2022-07-29T00:22:15;4.90;;;2.03;;
31270;SDS011;17904;47.420;9.310;2022-07-29T00:27:08;2.00;;;1.80;;
31270;SDS011;17904;47.420;9.310;2022-07-29T00:32:02;3.25;;;1.75;;
31270;SDS011;17904;47.420;9.310;2022-07-29T00:34:29;4.45;;;2.33;;
31270;SDS011;17904;47.420;9.310;2022-07-29T00:37:15;2.67;;;1.45;;
31270;SDS011;17904;47.420;9.310;2022-07-29T00:39:42;2.75;;;2.10;;
31270;SDS011;17904;47.420;9.310;2022-07-29T00:42:09;5.93;;;1.88;;
31270;SDS011;17904;47.420;9.310;2022-07-29T00:44:37;2.55;;;1.55;;
31270;SDS011;17904;47.420;9.310;2022-07-29T00:47:04;2.75;;;2.10;;
31270;SDS011;17904;47.420;9.310;2022-07-29T00:49:32;2.22;;;1.85;;
31270;SDS011;17904;47.420;9.310;2022-07-29T00:52:03;1.98;;;1.67;;
31270;SDS011;17904;47.420;9.310;2022-07-29T00:54:31;1.92;;;1.70;;
31270;SDS011;17904;47.420;9.310;2022-07-29T00:56:59;1.92;;;1.83;;
31270;SDS011;17904;47.420;9.310;2022-07-29T00:59:27;4.47;;;1.80;;
31270;SDS011;17904;47.420;9.310;2022-07-29T01:02:01;3.50;;;1.85;;
31270;SDS011;17904;47.420;9.310;2022-07-29T01:04:28;2.88;;;1.75;;
31270;SDS011;17904;47.420;9.310;2022-07-29T01:06:57;2.72;;;2.05;;
31270;SDS011;17904;47.420;9.310;2022-07-29T01:09:25;6.40;;;2.03;;
31270;SDS011;17904;47.420;9.310;2022-07-29T01:12:16;1.67;;;1.58;;
31270;SDS011;17904;47.420;9.310;2022-07-29T01:14:45;5.15;;;2.10;;
31270;SDS011;17904;47.420;9.310;2022-07-29T01:17:18;2.03;;;1.88;;
31270;SDS011;17904;47.420;9.310;2022-07-29T01:28:40;1.73;;;1.63;;
31270;SDS011;17904;47.420;9.310;2022-07-29T01:31:18;3.20;;;1.92;;
31270;SDS011;17904;47.420;9.310;2022-07-29T01:34:03;1.60;;;1.50;;
31270;SDS011;17904;47.420;9.310;2022-07-29T01:36:35;3.50;;;1.60;;
31270;SDS011;17904;47.420;9.310;2022-07-29T01:39:14;2.00;;;1.88;;
31270;SDS011;17904;47.420;9.310;2022-07-29T01:42:02;5.45;;;2.03;;
31270;SDS011;17904;47.420;9.310;2022-07-29T01:44:45;2.42;;;1.85;;
31270;SDS011;17904;47.420;9.310;2022-07-29T01:47:20;5.80;;;1.75;;
31270;SDS011;17904;47.420;9.310;2022-07-29T01:49:52;3.15;;;1.55;;
31270;SDS011;17904;47.420;9.310;2022-07-29T01:52:27;2.45;;;1.90;;
31270;SDS011;17904;47.420;9.310;2022-07-29T01:55:02;3.00;;;2.25;;
31270;SDS011;17904;47.420;9.310;2022-07-29T01:57:33;5.80;;;2.10;;
31270;SDS011;17904;47.420;9.310;2022-07-29T02:00:04;2.00;;;1.58;;
31270;SDS011;17904;47.420;9.310;2022-07-29T02:02:38;5.93;;;1.73;;
31270;SDS011;17904;47.420;9.310;2022-07-29T02:05:07;3.10;;;1.90;;
31270;SDS011;17904;47.420;9.310;2022-07-29T02:07:38;5.55;;;2.25;;
31270;SDS011;17904;47.420;9.310;2022-07-29T02:10:07;2.65;;;2.03;;
31270;SDS011;17904;47.420;9.310;2022-07-29T02:12:35;2.08;;;1.65;;
31270;SDS011;17904;47.420;9.310;2022-07-29T02:15:04;3.28;;;2.13;;
31270;SDS011;17904;47.420;9.310;2022-07-29T02:17:38;3.50;;;1.90;;
31270;SDS011;17904;47.420;9.310;2022-07-29T02:20:14;3.13;;;1.77;;
31270;SDS011;17904;47.420;9.310;2022-07-29T02:22:42;9.60;;;2.65;;
31270;SDS011;17904;47.420;9.310;2022-07-29T02:25:11;3.28;;;2.20;;
31270;SDS011;17904;47.420;9.310;2022-07-29T02:27:40;2.83;;;2.13;;
31270;SDS011;17904;47.420;9.310;2022-07-29T02:30:08;3.85;;;2.45;;
31270;SDS011;17904;47.420;9.310;2022-07-29T02:32:37;2.47;;;2.28;;
31270;SDS011;17904;47.420;9.310;2022-07-29T02:35:06;3.10;;;1.98;;
31270;SDS011;17904;47.420;9.310;2022-07-29T02:37:36;3.63;;;2.05;;
31270;SDS011;17904;47.420;9.310;2022-07-29T02:40:04;5.72;;;2.25;;
31270;SDS011;17904;47.420;9.310;2022-07-29T02:42:34;7.00;;;2.35;;
31270;SDS011;17904;47.420;9.310;2022-07-29T02:45:04;3.80;;;2.38;;
31270;SDS011;17904;47.420;9.310;2022-07-29T02:47:36;8.00;;;2.25;;
31270;SDS011;17904;47.420;9.310;2022-07-29T02:52:37;3.83;;;2.53;;
31270;SDS011;17904;47.420;9.310;2022-07-29T02:55:15;5.97;;;2.63;;
31270;SDS011;17904;47.420;9.310;2022-07-29T02:58:02;3.90;;;2.33;;
31270;SDS011;17904;47.420;9.310;2022-07-29T03:00:34;3.13;;;2.40;;
31270;SDS011;17904;47.420;9.310;2022-07-29T03:03:04;3.25;;;2.65;;
31270;SDS011;17904;47.420;9.310;2022-07-29T03:05:37;3.65;;;2.30;;
31270;SDS011;17904;47.420;9.310;2022-07-29T03:08:05;2.40;;;2.20;;
31270;SDS011;17904;47.420;9.310;2022-07-29T03:10:35;2.50;;;2.08;;
31270;SDS011;17904;47.420;9.310;2022-07-29T03:13:05;2.58;;;2.38;;
31270;SDS011;17904;47.420;9.310;2022-07-29T03:15:34;5.00;;;2.80;;
31270;SDS011;17904;47.420;9.310;2022-07-29T03:18:01;9.93;;;2.78;;
31270;SDS011;17904;47.420;9.310;2022-07-29T03:20:28;3.08;;;2.78;;
31270;SDS011;17904;47.420;9.310;2022-07-29T03:22:55;4.38;;;2.15;;
31270;SDS011;17904;47.420;9.310;2022-07-29T03:27:49;3.53;;;2.17;;
31270;SDS011;17904;47.420;9.310;2022-07-29T03:32:47;3.00;;;2.60;;
31270;SDS011;17904;47.420;9.310;2022-07-29T03:35:18;3.85;;;3.22;;
31270;SDS011;17904;47.420;9.310;2022-07-29T03:37:46;4.10;;;2.83;;
31270;SDS011;17904;47.420;9.310;2022-07-29T03:40:20;9.05;;;2.60;;
31270;SDS011;17904;47.420;9.310;2022-07-29T03:42:50;2.65;;;2.45;;
31270;SDS011;17904;47.420;9.310;2022-07-29T03:45:19;5.63;;;2.47;;
31270;SDS011;17904;47.420;9.310;2022-07-29T03:47:52;3.08;;;2.40;;
31270;SDS011;17904;47.420;9.310;2022-07-29T03:50:26;2.80;;;2.47;;
31270;SDS011;17904;47.420;9.310;2022-07-29T03:52:55;5.47;;;3.03;;
31270;SDS011;17904;47.420;9.310;2022-07-29T03:55:23;8.20;;;2.67;;
31270;SDS011;17904;47.420;9.310;2022-07-29T03:57:51;2.95;;;2.65;;
31270;SDS011;17904;47.420;9.310;2022-07-29T04:00:18;4.55;;;2.22;;
31270;SDS011;17904;47.420;9.310;2022-07-29T04:02:45;7.20;;;2.90;;
31270;SDS011;17904;47.420;9.310;2022-07-29T04:05:15;7.63;;;2.72;;
31270;SDS011;17904;47.420;9.310;2022-07-29T04:07:43;5.53;;;3.22;;
31270;SDS011;17904;47.420;9.310;2022-07-29T04:10:16;5.68;;;2.55;;
31270;SDS011;17904;47.420;9.310;2022-07-29T04:12:58;5.00;;;2.92;;
31270;SDS011;17904;47.420;9.310;2022-07-29T04:15:25;3.20;;;2.90;;
31270;SDS011;17904;47.420;9.310;2022-07-29T04:17:57;3.33;;;3.03;;
31270;SDS011;17904;47.420;9.310;2022-07-29T04:20:24;3.40;;;2.80;;
31270;SDS011;17904;47.420;9.310;2022-07-29T04:22:51;3.75;;;3.10;;
31270;SDS011;17904;47.420;9.310;2022-07-29T04:27:45;3.13;;;2.83;;
31270;SDS011;17904;47.420;9.310;2022-07-29T04:30:27;6.18;;;2.90;;
31270;SDS011;17904;47.420;9.310;2022-07-29T04:32:55;3.85;;;3.25;;
31270;SDS011;17904;47.420;9.310;2022-07-29T04:37:48;4.30;;;2.92;;
31270;SDS011;17904;47.420;9.310;2022-07-29T04:42:42;4.13;;;2.40;;
31270;SDS011;17904;47.420;9.310;2022-07-29T04:45:13;3.08;;;2.83;;
31270;SDS011;17904;47.420;9.310;2022-07-29T04:47:41;3.50;;;3.00;;
31270;SDS011;17904;47.420;9.310;2022-07-29T04:50:08;5.72;;;2.97;;
31270;SDS011;17904;47.420;9.310;2022-07-29T04:52:36;4.03;;;3.17;;
31270;SDS011;17904;47.420;9.310;2022-07-29T04:55:04;3.58;;;2.80;;
31270;SDS011;17904;47.420;9.310;2022-07-29T04:57:31;3.85;;;3.50;;
31270;SDS011;17904;47.420;9.310;2022-07-29T05:02:24;4.65;;;2.83;;
31270;SDS011;17904;47.420;9.310;2022-07-29T05:07:18;3.63;;;2.97;;
31270;SDS011;17904;47.420;9.310;2022-07-29T05:12:11;3.15;;;2.72;;
31270;SDS011;17904;47.420;9.310;2022-07-29T05:17:05;2.75;;;2.53;;
31270;SDS011;17904;47.420;9.310;2022-07-29T05:22:04;8.70;;;3.22;;
31270;SDS011;17904;47.420;9.310;2022-07-29T05:24:31;3.33;;;3.03;;
31270;SDS011;17904;47.420;9.310;2022-07-29T05:29:25;3.72;;;2.38;;
31270;SDS011;17904;47.420;9.310;2022-07-29T05:32:10;3.47;;;2.88;;
31270;SDS011;17904;47.420;9.310;2022-07-29T05:34:38;6.35;;;3.35;;
31270;SDS011;17904;47.420;9.310;2022-07-29T05:37:16;5.55;;;3.33;;
31270;SDS011;17904;47.420;9.310;2022-07-29T05:39:44;5.38;;;3.20;;
31270;SDS011;17904;47.420;9.310;2022-07-29T05:42:14;4.88;;;3.53;;
31270;SDS011;17904;47.420;9.310;2022-07-29T05:47:07;4.40;;;3.30;;
31270;SDS011;17904;47.420;9.310;2022-07-29T05:49:34;3.92;;;3.42;;
31270;SDS011;17904;47.420;9.310;2022-07-29T05:54:28;6.93;;;4.82;;
31270;SDS011;17904;47.420;9.310;2022-07-29T05:56:55;9.55;;;3.50;;
31270;SDS011;17904;47.420;9.310;2022-07-29T06:01:55;9.43;;;4.03;;
31270;SDS011;17904;47.420;9.310;2022-07-29T06:04:23;4.30;;;3.28;;
31270;SDS011;17904;47.420;9.310;2022-07-29T06:06:50;7.20;;;4.28;;
31270;SDS011;17904;47.420;9.310;2022-07-29T06:11:44;3.88;;;3.55;;
31270;SDS011;17904;47.420;9.310;2022-07-29T06:16:37;4.32;;;3.25;;
31270;SDS011;17904;47.420;9.310;2022-07-29T06:19:04;3.85;;;3.45;;
31270;SDS011;17904;47.420;9.310;2022-07-29T06:21:31;11.80;;;4.10;;
31270;SDS011;17904;47.420;9.310;2022-07-29T06:23:59;3.53;;;3.22;;
31270;SDS011;17904;47.420;9.310;2022-07-29T06:26:26;10.70;;;4.22;;
31270;SDS011;17904;47.420;9.310;2022-07-29T06:28:56;4.25;;;3.78;;
31270;SDS011;17904;47.420;9.310;2022-07-29T06:33:50;5.73;;;3.63;;
31270;SDS011;17904;47.420;9.310;2022-07-29T06:36:19;4.80;;;4.32;;
31270;SDS011;17904;47.420;9.310;2022-07-29T06:38:48;6.20;;;4.40;;
31270;SDS011;17904;47.420;9.310;2022-07-29T06:41:17;4.53;;;3.95;;
31270;SDS011;17904;47.420;9.310;2022-07-29T06:43:44;4.65;;;3.40;;
31270;SDS011;17904;47.420;9.310;2022-07-29T06:46:20;6.63;;;3.90;;
31270;SDS011;17904;47.420;9.310;2022-07-29T06:48:48;5.75;;;3.55;;
31270;SDS011;17904;47.420;9.310;2022-07-29T06:51:16;3.63;;;3.17;;
31270;SDS011;17904;47.420;9.310;2022-07-29T06:53:49;6.20;;;3.75;;
31270;SDS011;17904;47.420;9.310;2022-07-29T06:56:37;4.93;;;3.83;;
31270;SDS011;17904;47.420;9.310;2022-07-29T06:59:08;4.93;;;3.20;;
31270;SDS011;17904;47.420;9.310;2022-07-29T07:01:36;5.85;;;3.53;;
31270;SDS011;17904;47.420;9.310;2022-07-29T07:04:04;5.68;;;4.10;;
31270;SDS011;17904;47.420;9.310;2022-07-29T07:08:57;5.65;;;3.67;;
31270;SDS011;17904;47.420;9.310;2022-07-29T07:13:51;6.07;;;4.72;;
31270;SDS011;17904;47.420;9.310;2022-07-29T07:16:17;7.60;;;4.25;;
31270;SDS011;17904;47.420;9.310;2022-07-29T07:18:44;3.83;;;3.38;;
31270;SDS011;17904;47.420;9.310;2022-07-29T07:21:12;4.45;;;3.20;;
31270;SDS011;17904;47.420;9.310;2022-07-29T07:23:45;8.05;;;3.63;;
31270;SDS011;17904;47.420;9.310;2022-07-29T07:26:12;5.50;;;3.08;;
31270;SDS011;17904;47.420;9.310;2022-07-29T07:28:39;4.30;;;3.67;;
31270;SDS011;17904;47.420;9.310;2022-07-29T07:33:32;5.55;;;3.08;;
31270;SDS011;17904;47.420;9.310;2022-07-29T07:35:59;4.13;;;2.90;;
31270;SDS011;17904;47.420;9.310;2022-07-29T07:38:26;5.03;;;3.10;;
31270;SDS011;17904;47.420;9.310;2022-07-29T07:40:52;3.28;;;2.92;;
31270;SDS011;17904;47.420;9.310;2022-07-29T07:43:19;2.78;;;2.50;;
31270;SDS011;17904;47.420;9.310;2022-07-29T07:45:46;4.15;;;3.00;;
31270;SDS011;17904;47.420;9.310;2022-07-29T07:48:13;3.25;;;2.88;;
31270;SDS011;17904;47.420;9.310;2022-07-29T07:53:06;4.25;;;3.13;;
31270;SDS011;17904;47.420;9.310;2022-07-29T07:58:25;6.15;;;4.07;;
31270;SDS011;17904;47.420;9.310;2022-07-29T08:00:52;8.65;;;3.80;;
31270;SDS011;17904;47.420;9.310;2022-07-29T08:03:18;4.13;;;3.70;;
31270;SDS011;17904;47.420;9.310;2022-07-29T08:05:45;4.93;;;4.13;;
31270;SDS011;17904;47.420;9.310;2022-07-29T08:08:13;5.40;;;4.57;;
31270;SDS011;17904;47.420;9.310;2022-07-29T08:10:40;8.38;;;4.18;;
31270;SDS011;17904;47.420;9.310;2022-07-29T08:13:25;3.92;;;3.00;;
31270;SDS011;17904;47.420;9.310;2022-07-29T08:15:56;3.90;;;2.95;;
31270;SDS011;17904;47.420;9.310;2022-07-29T08:18:29;5.72;;;3.42;;
31270;SDS011;17904;47.420;9.310;2022-07-29T08:20:57;3.38;;;3.08;;
31270;SDS011;17904;47.420;9.310;2022-07-29T08:23:25;3.15;;;2.90;;
31270;SDS011;17904;47.420;9.310;2022-07-29T08:26:12;2.95;;;2.70;;
31270;SDS011;17904;47.420;9.310;2022-07-29T08:28:41;10.10;;;3.92;;
31270;SDS011;17904;47.420;9.310;2022-07-29T08:31:13;7.45;;;3.15;;
31270;SDS011;17904;47.420;9.310;2022-07-29T08:33:40;3.45;;;2.55;;
31270;SDS011;17904;47.420;9.310;2022-07-29T08:36:07;3.17;;;2.88;;
31270;SDS011;17904;47.420;9.310;2022-07-29T08:38:35;5.43;;;2.78;;
31270;SDS011;17904;47.420;9.310;2022-07-29T08:41:02;3.47;;;3.00;;
31270;SDS011;17904;47.420;9.310;2022-07-29T08:43:29;5.43;;;3.63;;
31270;SDS011;17904;47.420;9.310;2022-07-29T08:45:56;3.95;;;2.95;;
31270;SDS011;17904;47.420;9.310;2022-07-29T08:48:23;3.40;;;2.92;;
31270;SDS011;17904;47.420;9.310;2022-07-29T08:50:52;4.18;;;3.40;;
31270;SDS011;17904;47.420;9.310;2022-07-29T08:53:21;3.08;;;2.58;;
31270;SDS011;17904;47.420;9.310;2022-07-29T08:55:52;3.85;;;2.58;;
31270;SDS011;17904;47.420;9.310;2022-07-29T08:58:19;3.13;;;2.45;;
31270;SDS011;17904;47.420;9.310;2022-07-29T09:00:54;3.10;;;2.80;;
31270;SDS011;17904;47.420;9.310;2022-07-29T09:03:24;3.00;;;2.55;;
31270;SDS011;17904;47.420;9.310;2022-07-29T09:05:53;3.05;;;2.42;;
31270;SDS011;17904;47.420;9.310;2022-07-29T09:08:20;5.10;;;2.47;;
31270;SDS011;17904;47.420;9.310;2022-07-29T09:10:48;3.30;;;2.40;;
31270;SDS011;17904;47.420;9.310;2022-07-29T09:13:15;6.60;;;2.85;;
31270;SDS011;17904;47.420;9.310;2022-07-29T09:15:42;5.35;;;2.25;;
31270;SDS011;17904;47.420;9.310;2022-07-29T09:18:10;2.60;;;2.30;;
31270;SDS011;17904;47.420;9.310;2022-07-29T09:20:55;3.15;;;2.47;;
31270;SDS011;17904;47.420;9.310;2022-07-29T09:23:41;4.75;;;2.28;;
31270;SDS011;17904;47.420;9.310;2022-07-29T09:26:29;2.78;;;2.30;;
31270;SDS011;17904;47.420;9.310;2022-07-29T09:28:57;3.55;;;2.47;;
31270;SDS011;17904;47.420;9.310;2022-07-29T09:31:35;2.65;;;2.45;;
31270;SDS011;17904;47.420;9.310;2022-07-29T09:34:04;3.78;;;2.60;;
31270;SDS011;17904;47.420;9.310;2022-07-29T09:36:37;3.67;;;2.97;;
31270;SDS011;17904;47.420;9.310;2022-07-29T09:39:08;3.90;;;2.70;;
31270;SDS011;17904;47.420;9.310;2022-07-29T09:41:45;7.00;;;3.42;;
31270;SDS011;17904;47.420;9.310;2022-07-29T09:44:19;3.13;;;2.67;;
31270;SDS011;17904;47.420;9.310;2022-07-29T09:46:56;3.50;;;2.63;;
31270;SDS011;17904;47.420;9.310;2022-07-29T09:49:25;6.18;;;3.20;;
31270;SDS011;17904;47.420;9.310;2022-07-29T09:51:59;3.80;;;3.30;;
31270;SDS011;17904;47.420;9.310;2022-07-29T09:54:30;6.75;;;3.42;;
31270;SDS011;17904;47.420;9.310;2022-07-29T09:57:03;5.75;;;3.72;;
31270;SDS011;17904;47.420;9.310;2022-07-29T09:59:38;4.38;;;3.97;;
31270;SDS011;17904;47.420;9.310;2022-07-29T10:02:15;3.72;;;3.40;;
31270;SDS011;17904;47.420;9.310;2022-07-29T10:04:49;4.80;;;3.95;;
31270;SDS011;17904;47.420;9.310;2022-07-29T10:07:16;4.05;;;3.67;;
31270;SDS011;17904;47.420;9.310;2022-07-29T10:09:49;4.43;;;3.40;;
31270;SDS011;17904;47.420;9.310;2022-07-29T10:12:20;4.47;;;3.85;;
31270;SDS011;17904;47.420;9.310;2022-07-29T10:14:48;7.88;;;4.03;;
31270;SDS011;17904;47.420;9.310;2022-07-29T10:17:16;5.60;;;4.07;;
31270;SDS011;17904;47.420;9.310;2022-07-29T10:19:44;7.43;;;3.38;;
31270;SDS011;17904;47.420;9.310;2022-07-29T10:22:12;4.60;;;3.55;;
31270;SDS011;17904;47.420;9.310;2022-07-29T10:24:40;3.40;;;2.95;;
31270;SDS011;17904;47.420;9.310;2022-07-29T10:27:07;3.33;;;2.70;;
31270;SDS011;17904;47.420;9.310;2022-07-29T10:29:34;4.95;;;2.67;;
31270;SDS011;17904;47.420;9.310;2022-07-29T10:35:20;3.60;;;2.80;;
31270;SDS011;17904;47.420;9.310;2022-07-29T10:40:57;3.53;;;3.10;;
31270;SDS011;17904;47.420;9.310;2022-07-29T10:44:02;3.35;;;3.08;;
31270;SDS011;17904;47.420;9.310;2022-07-29T10:46:36;4.47;;;3.20;;
31270;SDS011;17904;47.420;9.310;2022-07-29T10:49:07;3.80;;;3.05;;
31270;SDS011;17904;47.420;9.310;2022-07-29T10:52:03;3.10;;;2.80;;
31270;SDS011;17904;47.420;9.310;2022-07-29T10:57:16;3.30;;;3.00;;
31270;SDS011;17904;47.420;9.310;2022-07-29T11:02:43;2.95;;;2.70;;
31270;SDS011;17904;47.420;9.310;2022-07-29T11:10:46;5.50;;;3.33;;
31270;SDS011;17904;47.420;9.310;2022-07-29T11:13:57;3.05;;;2.78;;
31270;SDS011;17904;47.420;9.310;2022-07-29T11:16:12;2.87;;;2.60;;
31270;SDS011;17904;47.420;9.310;2022-07-29T11:21:36;2.92;;;2.28;;
31270;SDS011;17904;47.420;9.310;2022-07-29T11:24:28;3.88;;;2.53;;
31270;SDS011;17904;47.420;9.310;2022-07-29T11:27:13;4.75;;;2.85;;
31270;SDS011;17904;47.420;9.310;2022-07-29T11:29:55;2.72;;;2.15;;
31270;SDS011;17904;47.420;9.310;2022-07-29T11:32:24;3.13;;;2.70;;
31270;SDS011;17904;47.420;9.310;2022-07-29T11:41:23;2.50;;;2.30;;
31270;SDS011;17904;47.420;9.310;2022-07-29T11:43:54;2.70;;;1.80;;
31270;SDS011;17904;47.420;9.310;2022-07-29T11:49:12;1.90;;;1.77;;
31270;SDS011;17904;47.420;9.310;2022-07-29T11:51:51;2.80;;;1.67;;
31270;SDS011;17904;47.420;9.310;2022-07-29T11:54:21;4.43;;;2.15;;
31270;SDS011;17904;47.420;9.310;2022-07-29T11:57:12;2.47;;;2.00;;
31270;SDS011;17904;47.420;9.310;2022-07-29T11:59:41;4.28;;;2.35;;
31270;SDS011;17904;47.420;9.310;2022-07-29T12:02:10;3.20;;;2.45;;
31270;SDS011;17904;47.420;9.310;2022-07-29T12:07:26;2.58;;;2.38;;
31270;SDS011;17904;47.420;9.310;2022-07-29T12:10:00;3.13;;;2.03;;
31270;SDS011;17904;47.420;9.310;2022-07-29T12:12:31;3.22;;;2.47;;
31270;SDS011;17904;47.420;9.310;2022-07-29T12:15:10;5.47;;;2.35;;
31270;SDS011;17904;47.420;9.310;2022-07-29T12:17:41;2.85;;;2.20;;
31270;SDS011;17904;47.420;9.310;2022-07-29T12:20:09;3.45;;;2.20;;
31270;SDS011;17904;47.420;9.310;2022-07-29T12:22:38;5.13;;;2.00;;
31270;SDS011;17904;47.420;9.310;2022-07-29T12:25:09;3.88;;;2.55;;
31270;SDS011;17904;47.420;9.310;2022-07-29T12:28:01;5.65;;;1.88;;
31270;SDS011;17904;47.420;9.310;2022-07-29T12:30:43;6.18;;;2.45;;
31270;SDS011;17904;47.420;9.310;2022-07-29T12:33:21;2.10;;;1.90;;
31270;SDS011;17904;47.420;9.310;2022-07-29T12:35:54;3.67;;;2.20;;
31270;SDS011;17904;47.420;9.310;2022-07-29T12:38:33;2.67;;;1.67;;
31270;SDS011;17904;47.420;9.310;2022-07-29T12:41:01;3.05;;;2.63;;
31270;SDS011;17904;47.420;9.310;2022-07-29T12:43:30;2.50;;;2.30;;
31270;SDS011;17904;47.420;9.310;2022-07-29T12:45:56;5.97;;;2.45;;
31270;SDS011;17904;47.420;9.310;2022-07-29T12:48:37;2.78;;;2.03;;
31270;SDS011;17904;47.420;9.310;2022-07-29T12:51:06;1.90;;;1.80;;
31270;SDS011;17904;47.420;9.310;2022-07-29T12:53:35;2.13;;;1.77;;
31270;SDS011;17904;47.420;9.310;2022-07-29T12:56:03;2.95;;;1.85;;
31270;SDS011;17904;47.420;9.310;2022-07-29T12:58:51;2.60;;;1.90;;
31270;SDS011;17904;47.420;9.310;2022-07-29T13:01:18;2.42;;;2.22;;
31270;SDS011;17904;47.420;9.310;2022-07-29T13:03:56;4.95;;;2.50;;
31270;SDS011;17904;47.420;9.310;2022-07-29T13:11:43;4.85;;;2.40;;
31270;SDS011;17904;47.420;9.310;2022-07-29T13:14:36;7.18;;;2.50;;
31270;SDS011;17904;47.420;9.310;2022-07-29T13:17:06;2.55;;;2.10;;
31270;SDS011;17904;47.420;9.310;2022-07-29T13:19:45;5.10;;;2.75;;
31270;SDS011;17904;47.420;9.310;2022-07-29T13:22:20;4.18;;;2.88;;
31270;SDS011;17904;47.420;9.310;2022-07-29T13:24:56;3.35;;;2.40;;
31270;SDS011;17904;47.420;9.310;2022-07-29T13:27:30;4.32;;;3.88;;
31270;SDS011;17904;47.420;9.310;2022-07-29T13:29:58;5.15;;;3.83;;
31270;SDS011;17904;47.420;9.310;2022-07-29T13:32:27;3.90;;;3.42;;
31270;SDS011;17904;47.420;9.310;2022-07-29T13:34:56;5.57;;;3.50;;
31270;SDS011;17904;47.420;9.310;2022-07-29T13:37:24;5.07;;;3.70;;
31270;SDS011;17904;47.420;9.310;2022-07-29T13:39:52;4.65;;;3.15;;
31270;SDS011;17904;47.420;9.310;2022-07-29T13:42:20;3.40;;;3.10;;
31270;SDS011;17904;47.420;9.310;2022-07-29T13:44:47;6.53;;;3.60;;
31270;SDS011;17904;47.420;9.310;2022-07-29T13:47:17;5.57;;;3.47;;
31270;SDS011;17904;47.420;9.310;2022-07-29T13:49:44;6.18;;;3.50;;
31270;SDS011;17904;47.420;9.310;2022-07-29T13:52:12;6.72;;;4.15;;
31270;SDS011;17904;47.420;9.310;2022-07-29T13:54:38;4.30;;;3.80;;
31270;SDS011;17904;47.420;9.310;2022-07-29T13:57:08;4.97;;;3.80;;
31270;SDS011;17904;47.420;9.310;2022-07-29T13:59:37;6.22;;;4.15;;
31270;SDS011;17904;47.420;9.310;2022-07-29T14:02:05;3.63;;;3.22;;
31270;SDS011;17904;47.420;9.310;2022-07-29T14:04:32;3.78;;;2.92;;
31270;SDS011;17904;47.420;9.310;2022-07-29T14:07:00;5.00;;;2.95;;
31270;SDS011;17904;47.420;9.310;2022-07-29T14:09:29;5.45;;;2.88;;
31270;SDS011;17904;47.420;9.310;2022-07-29T14:12:06;6.25;;;2.38;;
31270;SDS011;17904;47.420;9.310;2022-07-29T14:14:34;2.45;;;2.33;;
31270;SDS011;17904;47.420;9.310;2022-07-29T14:17:02;2.90;;;2.60;;
31270;SDS011;17904;47.420;9.310;2022-07-29T14:19:29;6.35;;;2.45;;
31270;SDS011;17904;47.420;9.310;2022-07-29T14:21:58;4.38;;;2.67;;
31270;SDS011;17904;47.420;9.310;2022-07-29T14:24:25;3.88;;;2.40;;
31270;SDS011;17904;47.420;9.310;2022-07-29T14:26:52;6.10;;;2.58;;
31270;SDS011;17904;47.420;9.310;2022-07-29T14:29:19;5.10;;;2.90;;
31270;SDS011;17904;47.420;9.310;2022-07-29T14:31:46;4.07;;;2.80;;
31270;SDS011;17904;47.420;9.310;2022-07-29T14:34:13;6.47;;;2.47;;
31270;SDS011;17904;47.420;9.310;2022-07-29T14:36:41;4.85;;;2.67;;
31270;SDS011;17904;47.420;9.310;2022-07-29T14:39:08;5.78;;;3.03;;
31270;SDS011;17904;47.420;9.310;2022-07-29T14:41:35;3.97;;;2.47;;
31270;SDS011;17904;47.420;9.310;2022-07-29T14:44:02;5.82;;;2.70;;
31270;SDS011;17904;47.420;9.310;2022-07-29T14:46:29;3.53;;;2.40;;
31270;SDS011;17904;47.420;9.310;2022-07-29T14:48:56;3.85;;;2.92;;
31270;SDS011;17904;47.420;9.310;2022-07-29T14:51:23;4.55;;;2.97;;
31270;SDS011;17904;47.420;9.310;2022-07-29T14:53:57;6.18;;;2.65;;
31270;SDS011;17904;47.420;9.310;2022-07-29T14:56:24;3.33;;;2.60;;
31270;SDS011;17904;47.420;9.310;2022-07-29T14:59:11;3.13;;;2.70;;
31270;SDS011;17904;47.420;9.310;2022-07-29T15:01:38;5.43;;;2.75;;
31270;SDS011;17904;47.420;9.310;2022-07-29T15:04:05;3.15;;;2.85;;
31270;SDS011;17904;47.420;9.310;2022-07-29T15:06:31;4.93;;;2.78;;
31270;SDS011;17904;47.420;9.310;2022-07-29T15:08:58;4.85;;;2.83;;
31270;SDS011;17904;47.420;9.310;2022-07-29T15:11:25;3.63;;;2.92;;
31270;SDS011;17904;47.420;9.310;2022-07-29T15:13:52;2.72;;;2.53;;
31270;SDS011;17904;47.420;9.310;2022-07-29T15:16:19;4.63;;;4.00;;
31270;SDS011;17904;47.420;9.310;2022-07-29T15:18:46;15.40;;;12.35;;
31270;SDS011;17904;47.420;9.310;2022-07-29T15:21:12;6.00;;;5.40;;
31270;SDS011;17904;47.420;9.310;2022-07-29T15:23:39;5.40;;;4.15;;
31270;SDS011;17904;47.420;9.310;2022-07-29T15:26:06;8.57;;;7.70;;
31270;SDS011;17904;47.420;9.310;2022-07-29T15:28:33;6.95;;;5.63;;
31270;SDS011;17904;47.420;9.310;2022-07-29T15:31:00;8.27;;;3.92;;
31270;SDS011;17904;47.420;9.310;2022-07-29T15:33:27;4.95;;;3.97;;
31270;SDS011;17904;47.420;9.310;2022-07-29T15:35:55;4.53;;;3.90;;
31270;SDS011;17904;47.420;9.310;2022-07-29T15:38:22;4.07;;;3.67;;
31270;SDS011;17904;47.420;9.310;2022-07-29T15:40:54;3.80;;;3.45;;
31270;SDS011;17904;47.420;9.310;2022-07-29T15:43:21;4.78;;;3.97;;
31270;SDS011;17904;47.420;9.310;2022-07-29T15:45:48;4.75;;;4.05;;
31270;SDS011;17904;47.420;9.310;2022-07-29T15:48:36;5.10;;;3.70;;
31270;SDS011;17904;47.420;9.310;2022-07-29T15:51:05;11.30;;;3.50;;
31270;SDS011;17904;47.420;9.310;2022-07-29T15:53:32;3.92;;;3.50;;
31270;SDS011;17904;47.420;9.310;2022-07-29T15:56:00;5.72;;;3.67;;
31270;SDS011;17904;47.420;9.310;2022-07-29T15:58:27;5.22;;;3.53;;
31270;SDS011;17904;47.420;9.310;2022-07-29T16:00:54;3.92;;;3.58;;
31270;SDS011;17904;47.420;9.310;2022-07-29T16:03:21;11.02;;;4.30;;
31270;SDS011;17904;47.420;9.310;2022-07-29T16:05:48;7.80;;;4.40;;
31270;SDS011;17904;47.420;9.310;2022-07-29T16:08:15;6.97;;;4.72;;
31270;SDS011;17904;47.420;9.310;2022-07-29T16:10:42;8.13;;;4.88;;
31270;SDS011;17904;47.420;9.310;2022-07-29T16:13:08;5.10;;;3.67;;
31270;SDS011;17904;47.420;9.310;2022-07-29T16:15:42;6.68;;;4.57;;
31270;SDS011;17904;47.420;9.310;2022-07-29T16:18:09;7.47;;;3.83;;
31270;SDS011;17904;47.420;9.310;2022-07-29T16:20:36;5.93;;;4.25;;
31270;SDS011;17904;47.420;9.310;2022-07-29T16:23:02;5.72;;;4.85;;
31270;SDS011;17904;47.420;9.310;2022-07-29T16:25:29;7.13;;;4.65;;
31270;SDS011;17904;47.420;9.310;2022-07-29T16:28:16;3.72;;;3.28;;
31270;SDS011;17904;47.420;9.310;2022-07-29T16:30:43;7.43;;;4.28;;
31270;SDS011;17904;47.420;9.310;2022-07-29T16:33:10;8.60;;;4.43;;
31270;SDS011;17904;47.420;9.310;2022-07-29T16:35:37;4.22;;;3.83;;
31270;SDS011;17904;47.420;9.310;2022-07-29T16:38:05;5.78;;;4.35;;
31270;SDS011;17904;47.420;9.310;2022-07-29T16:40:32;5.90;;;4.05;;
31270;SDS011;17904;47.420;9.310;2022-07-29T16:42:59;6.20;;;4.57;;
31270;SDS011;17904;47.420;9.310;2022-07-29T16:45:26;5.88;;;4.20;;
31270;SDS011;17904;47.420;9.310;2022-07-29T16:48:06;5.70;;;3.78;;
31270;SDS011;17904;47.420;9.310;2022-07-29T16:50:35;6.45;;;4.25;;
31270;SDS011;17904;47.420;9.310;2022-07-29T16:53:03;8.70;;;4.93;;
31270;SDS011;17904;47.420;9.310;2022-07-29T16:55:30;6.25;;;4.28;;
31270;SDS011;17904;47.420;9.310;2022-07-29T16:57:57;4.95;;;4.10;;
31270;SDS011;17904;47.420;9.310;2022-07-29T17:00:24;6.95;;;4.68;;